Weather observations for the past three days for
Pine Bluffs Municipal Airport
Imperial (Metric)
Date Time (mdt) Wind (mph) Vis. (mi.) Weather Sky Cond. Temperature (ºF) Relative Humidity Wind Chill (°F) Heat Index (°F) Pressure Precipitation (in)
Air Dwpt 6 hour altimeter (in) sea level (mb) 1 hr 3 hr 6 hr
Max. Min.
30 23:35 W 7 10.00 Fair CLR 59 52.5 79% 30.13 0.0
30 23:15 S 3 10.00 Fair CLR 60.8 51.8 72% 30.13 0.0
30 22:55 W 3 10.00 Fair CLR 60.4 52.2 74% 30.14 0.0
30 22:35 Calm 10.00 Fair CLR 62.4 50.9 66% 30.13 0.0
30 22:15 SE 3 10.00 Fair CLR 62.1 51.1 67% 30.13 0.0
30 21:55 W 8 10.00 Fair CLR 62.1 51.1 67% 30.13 0.0
30 21:35 SW 7 10.00 Fair CLR 63 50.2 63% 30.12 0.0
30 21:15 SW 9 10.00 Fair CLR 63.3 50 62% 30.12 0.0
30 20:55 Calm 10.00 Fair CLR 63.7 50 61% 30.12 0.0
30 20:35 SW 6 10.00 Fair CLR 64.8 49.6 58% 30.11 0.0
30 20:15 SW 9 10.00 Fair CLR 65.8 49.6 56% 30.1 0.0
30 19:55 S 12 10.00 Fair CLR 66.4 49.1 54% 30.1 0.0
30 19:35 SW 7 10.00 Fair CLR 68.5 48.6 49% 30.1 0.0
30 19:15 SW 9 10.00 Fair CLR 67.1 49.8 54% 30.1 0.0
30 18:55 SW 7 10.00 Fair CLR 69.6 50.2 50% 30.1 0.0
30 18:35 SW 12 10.00 Fair CLR 71.4 49.6 46% 30.11 0.0
30 18:15 W 9 10.00 Fair CLR 72 49.6 45% 30.11 0.0
30 17:55 W 15 10.00 Fair CLR 75.2 49.1 84.7 72.5 40% 78 30.09 0.0
30 17:35 W 14 10.00 Fair CLR 74.8 49.1 40% 30.09 0.0
30 17:15 W 16 10.00 Fair CLR 77.4 49.3 37% 78 30.09 0.0
30 16:55 W 18 G 24 10.00 Fair CLR 75.9 50.2 41% 78 30.1 0.0
30 16:35 W 15 10.00 Fair CLR 76.3 49.5 39% 78 30.1 0.0
30 16:15 W 20 G 26 10.00 A Few Clouds FEW110 75 49.1 40% 77 30.1 0.0
30 15:55 W 17 10.00 Mostly Cloudy BKN110 76.6 47.7 36% 78 30.1 0.0
30 15:35 W 24 G 30 9.00 Overcast and Breezy OVC110 76.8 48.6 37% 78 30.11 0.0
30 15:15 W 18 10.00 Overcast OVC110 75.9 51.1 42% 78 30.11 0.0
30 14:55 W 18 7.00 Mostly Cloudy FEW055 BKN100 BKN120 72.9 51.3 47% 30.11 0.0
30 14:35 W 20 G 29 10.00 Mostly Cloudy BKN120 76.8 47.7 36% 78 30.11 0.0
30 14:15 W 23 10.00 Mostly Cloudy and Breezy BKN110 78.8 46.8 32% 79 30.09 0.0
30 13:55 W 28 G 35 10.00 Fair and Windy CLR 83.8 48.9 30% 82 30.07 0.0
30 13:35 W 30 G 37 10.00 Fair and Windy CLR 83.1 47.3 29% 81 30.07 0.0
30 13:15 W 17 G 24 10.00 Fair CLR 84.7 49.1 29% 83 30.06 0.0
30 12:55 W 17 10.00 Fair CLR 82.6 46.9 29% 81 30.06 0.0
30 12:35 W 18 10.00 Fair CLR 83.5 47.1 28% 81 30.06 0.0
30 12:15 SW 20 10.00 Fair CLR 81.7 48 31% 80 30.06 0.0
30 11:55 W 16 10.00 Fair CLR 79.5 48.6 79.5 62.1 34% 79 30.07 0.0
30 11:35 W 15 10.00 Fair CLR 77.4 48.7 37% 78 30.07 0.0
30 11:15 W 13 10.00 Fair CLR 75.6 49.1 39% 78 30.08 0.0
30 10:55 W 13 9.00 Fair CLR 74.7 48.7 40% 30.09 0.0
30 10:35 W 21 G 28 9.00 Fair and Breezy CLR 74.7 48 39% 30.09 0.0
30 10:15 W 21 10.00 Fair and Breezy CLR 75.6 48.7 39% 78 30.09 0.0
30 09:55 W 21 10.00 Fair and Breezy CLR 74.8 48 39% 30.1 0.0
30 09:35 W 18 G 24 10.00 Fair CLR 75.7 49.1 39% 78 30.09 0.0
30 09:15 W 12 10.00 Fair CLR 73.4 49.8 44% 30.09 0.0
30 08:55 W 15 10.00 Fair CLR 71.8 48.9 44% 30.08 0.0
30 08:35 SW 12 10.00 Fair CLR 69.1 49.6 50% 30.08 0.0
30 08:15 W 16 10.00 Fair CLR 69.4 48.9 48% 30.08 0.0
30 07:55 W 23 10.00 Fair and Breezy CLR 70 48.4 46% 30.07 0.0
30 07:35 W 23 G 30 9.00 Fair and Breezy CLR 68.9 48.6 48% 30.06 0.0
30 07:15 W 15 9.00 Fair CLR 66.6 48.9 53% 30.06 0.0
30 06:55 W 17 9.00 Fair CLR 67.1 48.7 52% 30.07 0.0
30 06:35 W 18 10.00 Fair CLR 66.7 48.9 53% 30.06 0.0
30 06:15 W 8 10.00 A Few Clouds FEW120 63.1 51.1 65% 30.06 0.0
30 05:55 S 8 10.00 Overcast OVC110 60.6 53.4 65.3 59.5 77% 30.06 0.0
30 05:35 S 7 9.00 Mostly Cloudy BKN110 60.4 53.4 78% 30.05 0.0
30 05:15 Calm 10.00 A Few Clouds FEW120 61.5 52.2 72% 30.05 0.0
30 04:55 SW 6 9.00 Light Rain SCT100 BKN120 62.2 52.2 70% 30.04 0.0
30 04:35 SW 9 10.00 Mostly Cloudy FEW090 BKN110 62.4 52 69% 30.05 0.0
30 04:15 SW 7 10.00 Mostly Cloudy BKN100 62.8 50.7 65% 30.06 0.0
30 03:55 SW 7 10.00 Overcast OVC100 60.1 52 75% 30.05 0.0
30 03:35 S 12 10.00 Overcast OVC110 60.4 51.3 72% 30.05 0.0
30 03:15 S 13 10.00 Mostly Cloudy BKN120 60.6 50.5 70% 30.04 0.0
30 02:55 SW 13 10.00 Fair CLR 63.1 48.7 60% 30.04 0.0
30 02:35 SW 8 10.00 Fair CLR 62.2 50 64% 30.05 0.0
30 02:15 W 6 10.00 Fair CLR 63.7 49.1 59% 30.05 0.0
30 01:55 W 9 10.00 Fair CLR 62.2 50 64% 30.05 0.0
30 01:35 SW 7 10.00 Fair CLR 61.9 50.4 66% 30.05 0.0
30 01:15 SW 8 10.00 Fair CLR 61.9 50.4 66% 30.05 0.0
30 00:55 SW 6 10.00 Fair CLR 61.9 51.3 68% 30.06 0.0
30 00:35 SW 8 10.00 A Few Clouds FEW120 61.9 51.6 69% 30.06 0.0
30 00:15 SW 5 10.00 A Few Clouds FEW120 60.3 52.3 75% 30.05 0.0
29 23:55 SW 7 10.00 Fair CLR 61.2 51.4 72.3 58.1 71% 30.05 0.0
29 23:35 S 5 10.00 Fair CLR 61.2 51.8 71% 30.06 0.0
29 23:15 S 3 10.00 Fair CLR 58.6 52 79% 30.07 0.0
29 22:55 S 7 10.00 Fair CLR 61.7 51.6 70% 30.09 0.0
29 22:35 Calm 10.00 Fair CLR 59.5 51.8 76% 30.1 0.0
29 22:15 W 6 10.00 Fair CLR 61.2 51.6 71% 30.1 0.0
29 21:55 Calm 10.00 Fair CLR 60.3 52.3 75% 30.11 0.0
29 21:35 W 6 10.00 Fair CLR 60.6 52.7 75% 30.11 0.0
29 21:15 W 8 10.00 Fair CLR 62.2 52.3 70% 30.12 0.0
29 20:55 W 13 10.00 Fair CLR 63.5 52.3 67% 30.12 0.0
29 20:35 NW 16 10.00 Fair CLR 64.2 52.2 65% 30.12 0.0
29 20:15 W 21 G 28 10.00 Partly Cloudy and Breezy SCT110 64.6 51.8 63% 30.12 0.0
29 19:55 W 23 G 30 10.00 Mostly Cloudy and Breezy BKN100 64.4 52 64% 30.12 0.0
29 19:35 NW 28 G 37 8.00 Mostly Cloudy and Windy BKN100 64 52.2 65% 30.12 0.0
29 19:15 NW 25 G 44 6.00 Mostly Cloudy with Haze and Breezy BKN100 64.9 54.3 69% 30.14 0.0
29 18:55 NW 22 G 26 8.00 Light Rain and Breezy BKN120 71.6 57.4 61% 30.13 0.0
29 18:35 W 9 9.00 Mostly Cloudy BKN110 70.5 59.9 69% 30.1 0.0
29 18:15 Calm 9.00 Overcast OVC100 70.9 58.5 65% 30.09 0.0
29 17:55 NW 14 9.00 Overcast OVC100 73 56.5 88.9 73 56% 30.08 0.0
29 17:35 N 10 9.00 Mostly Cloudy BKN110 73.2 56.3 56% 30.06 0.0
29 17:15 N 17 9.00 Fair CLR 75 55.2 50% 78 30.06 0.0
29 16:55 N 15 10.00 A Few Clouds FEW110 75.6 55.2 49% 78 30.05 0.0
29 16:35 NW 20 8.00 Partly Cloudy SCT100 75.4 54.9 49% 78 30.06 0.0
29 16:15 NW 22 G 32 10.00 Partly Cloudy and Breezy SCT100 85.1 52.3 32% 83 30.06 0.0
29 15:55 SW 8 10.00 A Few Clouds FEW110 86.2 50.7 29% 84 30.03 0.0
29 15:15 S 14 10.00 Fair CLR 86.5 49.5 28% 84 30.04 0.0
29 14:55 SW 9 10.00 Fair CLR 87.8 51.1 28% 85 30.05 0.0
29 14:35 SW 7 10.00 Fair CLR 85.8 50.4 29% 84 30.05 0.0
29 14:15 W 9 10.00 Fair CLR 84.7 50.9 31% 83 30.06 0.0
29 13:55 SW 9 10.00 Fair CLR 84.2 51.4 32% 82 30.07 0.0
29 13:35 SW 9 9.00 Fair CLR 83.1 52.7 35% 82 30.07 0.0
29 13:15 W 10 10.00 Fair CLR 83.7 53.1 35% 82 30.08 0.0
29 12:55 W 12 10.00 Fair CLR 84.6 52.5 33% 83 30.08 0.0
29 12:35 W 17 G 22 10.00 Fair CLR 85.6 51.3 31% 83 30.08 0.0
29 12:15 W 15 10.00 Fair CLR 88.3 51.6 28% 86 30.08 0.0
29 11:55 W 14 G 17 10.00 Fair CLR 86.7 51.8 86.7 58.8 30% 84 30.09 0.0
29 11:35 SW 7 10.00 Fair CLR 85.3 51.8 32% 83 30.09 0.0
29 10:15 NW 9 10.00 Fair CLR 80.4 51.8 37% 80 30.11 0.0
29 09:55 NW 14 10.00 Fair CLR 78.4 52.9 41% 79 30.12 0.0
29 09:35 NW 9 10.00 Fair CLR 76.1 54.5 47% 78 30.12 0.0
29 09:15 NW 13 8.00 Fair CLR 72.7 52.9 50% 30.12 0.0
29 08:55 NW 8 9.00 Fair CLR 69.6 55.9 62% 30.12 0.0
29 08:35 NW 8 8.00 Fair CLR 68.5 55.8 64% 30.13 0.0
29 08:15 W 3 9.00 Fair CLR 67.1 55.6 67% 30.12 0.0
29 07:55 Calm 9.00 Fair CLR 63.7 55.8 76% 30.13 0.0
29 07:35 W 5 9.00 Fair CLR 63.1 56.3 79% 30.12 0.0
29 07:15 SW 5 8.00 Fair CLR 63 55.2 76% 30.12 0.0
29 06:55 SW 5 9.00 Fair CLR 61.3 56.3 84% 30.12 0.0
29 06:35 W 3 9.00 A Few Clouds FEW120 58.8 57.2 94% 30.11 0.0
29 06:15 Calm 9.00 Mostly Cloudy BKN120 58.8 56.7 93% 30.11 0.0
29 05:55 SE 5 10.00 Fair CLR 60.1 56.5 63.7 58.8 88% 30.1 0.0
29 05:35 Calm 9.00 Fair CLR 60.8 56.7 86% 30.1 0.0
29 05:15 SW 5 9.00 Partly Cloudy SCT120 61.2 55.8 83% 30.11 0.0
29 04:55 Calm 10.00 Overcast OVC120 61.5 55 79% 30.11 0.0
29 04:35 SW 3 10.00 Overcast OVC120 62.1 54.3 76% 30.11 0.0
29 04:15 S 5 10.00 Mostly Cloudy BKN120 61.7 54.1 76% 30.11 0.0
29 03:55 Vrbl 5 10.00 Fair CLR 60.1 54.3 81% 30.12 0.0
29 03:35 Calm 10.00 Fair CLR 59.7 54.3 82% 30.11 0.0
29 03:15 W 7 10.00 Fair CLR 61.2 54.7 79% 30.11 0.0
29 02:55 W 8 10.00 A Few Clouds FEW120 62.4 55.4 78% 30.11 0.0
29 02:35 W 8 10.00 Partly Cloudy SCT120 61.5 55.9 82% 30.11 0.0
29 02:15 SW 6 10.00 A Few Clouds FEW120 63.3 54.5 73% 30.11 0.0
29 01:55 W 8 10.00 A Few Clouds FEW120 60.8 54.5 80% 30.11 0.0
29 01:35 W 6 9.00 Partly Cloudy SCT120 62.1 54.3 76% 30.11 0.0
29 01:15 Calm 10.00 Partly Cloudy SCT120 63.1 54 72% 30.11 0.0
29 00:55 S 5 10.00 Fair CLR 63.7 54 71% 30.12 0.0
29 00:35 S 8 10.00 Fair CLR 62.6 54.9 76% 30.12 0.0
29 00:15 S 8 10.00 Fair CLR 61.7 55.6 80% 30.12 0.0
28 23:55 W 9 9.00 Fair CLR 61.9 55.4 73.6 61.3 79% 30.11 0.0 0.13
28 23:35 W 7 10.00 Fair CLR 62.4 55.8 79% 30.12 0.0
28 23:15 SW 6 9.00 Fair CLR 63.3 55.8 77% 30.12 0.0
28 22:55 SW 8 10.00 Fair CLR 64 57 78% 30.12 0.0
28 22:35 SW 6 9.00 Fair CLR 64.8 57.7 78% 30.12 0.0
28 22:15 W 9 9.00 Fair CLR 66.9 56.5 69% 30.12 0.0
28 21:55 W 10 10.00 Mostly Cloudy BKN120 68.5 57.4 68% 30.13 0.0
28 21:35 W 7 10.00 Mostly Cloudy BKN120 69.8 57.7 66% 30.13 0.0
28 21:15 W 8 9.00 Mostly Cloudy BKN120 71.1 56.5 60% 30.13 0.0
28 20:55 W 15 10.00 Mostly Cloudy FEW090 BKN120 72.1 56.3 58% 30.15 0.0 0.13
28 20:35 W 12 10.00 Partly Cloudy SCT120 71.8 57.2 60% 30.14 0.0
28 20:15 W 15 10.00 Mostly Cloudy BKN110 73.2 56.7 56% 30.14 0.0
28 19:55 NW 10 10.00 Overcast OVC110 72.1 59.9 66% 30.12 0.0
28 19:35 NE 5 9.00 Overcast OVC110 72.5 58.8 62% 30.1 0.0
28 19:15 Vrbl 3 10.00 Overcast FEW090 OVC120 72.7 59 62% 30.11 0.0
28 18:55 SE 8 10.00 Overcast OVC120 72.3 57.7 60% 30.1 0.0 0.13
28 18:35 SE 9 10.00 Overcast FEW085 OVC120 71.1 58.8 65% 30.11 0.0 0.13
28 18:15 S 13 5.00 Light Rain FEW004 BKN080 OVC120 72 55.4 56% 30.14 0.0 0.13
28 17:55 SW 14 8.00 Light Rain FEW060 SCT070 OVC110 79.5 57.9 93.7 75.6 48% 80 30.14 0.0 0.02
28 17:35 W 6 10.00 Mostly Cloudy BKN120 81.5 61.7 51% 82 30.1 0.0
28 17:15 S 3 10.00 Fair CLR 83.1 58.8 44% 83 30.08 0.0
28 16:55 SE 6 10.00 Fair CLR 85.3 55.8 37% 84 30.08 0.0
28 16:35 NE 9 10.00 Fair CLR 83.8 55 37% 83 30.09 0.0
28 16:15 NE 12 10.00 Partly Cloudy FEW090 SCT110 82.8 59.9 46% 83 30.1 0.0
28 15:55 SE 8 10.00 Mostly Cloudy FEW055 BKN110 78.8 60.8 54% 80 30.1 0.0 0.02
28 15:35 E 7 6.00 Light Rain FEW046 SCT065 OVC110 76.1 54.7 48% 78 30.11 0.0 0.02
28 15:15 W 9 10.00 Overcast OVC110 88.9 48.9 25% 86 30.11 0.0
28 14:55 SW 7 10.00 A Few Clouds FEW120 91.4 47.1 22% 88 30.1 0.0
28 14:35 SW 10 10.00 Fair CLR 93.4 48.6 22% 90 30.1 0.0
28 14:15 SW 12 10.00 Fair CLR 91.9 50.4 24% 89 30.11 0.0
28 13:55 SW 9 10.00 Partly Cloudy SCT120 89.4 52.2 28% 87 30.11 0.0
28 13:35 SW 13 10.00 Mostly Cloudy BKN120 89.8 50.7 26% 87 30.12 0.0
28 13:15 SW 12 10.00 Partly Cloudy SCT120 91.9 50.5 24% 89 30.11 0.0
28 12:55 S 9 10.00 Fair CLR 91.4 50.5 25% 88 30.12 0.0
28 12:35 S 10 10.00 Fair CLR 90.9 51.8 26% 88 30.13 0.0
28 12:15 S 5 10.00 Fair CLR 89.6 51.6 27% 87 30.13 0.0
28 11:55 S 5 10.00 Fair CLR 86.9 54.9 88 57 34% 85 30.15 0.0
28 11:35 SW 8 10.00 Fair CLR 87.6 57.4 36% 86 30.15 0.0
28 11:15 SW 6 10.00 Fair CLR 86 56.1 36% 85 30.16 0.0
28 10:55 SW 6 10.00 Fair CLR 82.2 60.1 47% 83 30.17 0.0
28 10:35 S 5 10.00 Fair CLR 80.4 60.4 51% 81 30.17 0.0
28 10:15 SW 7 10.00 Fair CLR 78.1 60.6 55% 80 30.17 0.0
28 09:55 SW 9 10.00 Fair CLR 73.9 60.4 63% 30.17 0.0
28 09:35 SW 8 10.00 Fair CLR 72.3 59.9 65% 30.17 0.0
28 09:15 SW 9 10.00 Fair CLR 71.6 60.3 68% 30.17 0.0
28 08:55 SW 9 10.00 Fair CLR 68.5 59.5 73% 30.18 0.0
28 08:35 SW 12 10.00 Fair CLR 66.6 59 77% 30.18 0.0
28 08:15 SW 13 10.00 Fair CLR 64.6 58.3 80% 30.18 0.0
28 07:55 SW 8 10.00 Fair CLR 63.1 58.1 84% 30.18 0.0
28 07:35 W 7 9.00 Fair CLR 61.5 57.6 87% 30.18 0.0
28 07:15 W 5 9.00 Fair CLR 58.8 57 94% 30.18 0.0
28 06:55 SW 7 9.00 Fair CLR 58.1 56.5 94% 30.18 0.0
28 06:35 W 7 8.00 Fair CLR 57.4 55.9 95% 30.18 0.0
28 06:15 SW 6 9.00 Fair CLR 57.2 55.8 95% 30.17 0.0
28 05:55 SW 6 10.00 Fair CLR 58.1 56.1 64.9 57.9 93% 30.17 0.0
28 05:35 S 8 10.00 Fair CLR 58.3 56.3 93% 30.17 0.0
28 05:15 S 9 10.00 Fair CLR 59 56.5 91% 30.17 0.0
28 04:55 SW 5 10.00 Fair CLR 60.3 56.7 88% 30.18 0.0
28 04:35 SW 7 10.00 Fair CLR 61 56.7 86% 30.18 0.0
28 04:15 S 13 10.00 Fair CLR 62.4 56.8 82% 30.18 0.0
28 03:55 S 13 10.00 Fair CLR 63.3 57.2 81% 30.18 0.0
28 03:35 S 15 10.00 Fair CLR 63.7 57.2 80% 30.19 0.0
28 03:15 S 8 10.00 Fair CLR 63.3 58.1 83% 30.2 0.0
28 02:55 S 12 10.00 Fair CLR 64.2 58.5 82% 30.2 0.0
28 02:35 S 7 10.00 Fair CLR 62.2 56.5 82% 30.2 0.0
28 02:15 S 6 10.00 Fair CLR 61.5 55.6 81% 30.2 0.0
28 01:55 S 7 10.00 Fair CLR 61.9 56.1 82% 30.2 0.0
28 01:35 S 3 10.00 Fair CLR 62.4 56.8 82% 30.19 0.0
28 01:15 S 8 10.00 Fair CLR 62.8 57.4 83% 30.19 0.0
28 00:55 S 9 10.00 Fair CLR 63.7 58.1 82% 30.19 0.0
28 00:35 S 8 10.00 Fair CLR 64 58.1 81% 30.19 0.0
28 00:15 Calm 10.00 Fair CLR 63.9 58.3 82% 30.19 0.0
Date Time (mdt) Wind (mph) Vis. (mi.) Weather Sky Cond. Air Dwpt Max. Min. Relative Humidity Wind Chill (°F) Heat Index (°F) altimeter (in) sea level (mb) 1 hr 3 hr 6 hr
6 hour
Temperature (ºF) Pressure Precipitation (in)